sensor_id;sensor_type;location;lat;lon;timestamp;P1;durP1;ratioP1;P2;durP2;ratioP2
55216;SDS011;41086;46.736;15.666;2023-05-07T00:00:20;114.50;;;18.30;;
55216;SDS011;41086;46.736;15.666;2023-05-07T00:03:37;61.63;;;17.13;;
55216;SDS011;41086;46.736;15.666;2023-05-07T00:06:55;118.15;;;21.10;;
55216;SDS011;41086;46.736;15.666;2023-05-07T00:10:13;206.95;;;29.63;;
55216;SDS011;41086;46.736;15.666;2023-05-07T00:13:31;52.38;;;20.52;;
55216;SDS011;41086;46.736;15.666;2023-05-07T00:16:48;442.08;;;36.97;;
55216;SDS011;41086;46.736;15.666;2023-05-07T00:20:06;514.72;;;44.72;;
55216;SDS011;41086;46.736;15.666;2023-05-07T00:23:23;273.52;;;32.80;;
55216;SDS011;41086;46.736;15.666;2023-05-07T00:26:41;322.52;;;34.20;;
55216;SDS011;41086;46.736;15.666;2023-05-07T00:29:58;90.20;;;20.58;;
55216;SDS011;41086;46.736;15.666;2023-05-07T00:33:16;59.33;;;21.63;;
55216;SDS011;41086;46.736;15.666;2023-05-07T00:36:33;261.17;;;36.97;;
55216;SDS011;41086;46.736;15.666;2023-05-07T00:39:50;243.98;;;39.63;;
55216;SDS011;41086;46.736;15.666;2023-05-07T00:43:08;469.85;;;43.60;;
55216;SDS011;41086;46.736;15.666;2023-05-07T00:46:25;126.22;;;32.55;;
55216;SDS011;41086;46.736;15.666;2023-05-07T00:49:43;189.80;;;35.60;;
55216;SDS011;41086;46.736;15.666;2023-05-07T00:53:01;229.50;;;28.60;;
55216;SDS011;41086;46.736;15.666;2023-05-07T00:56:18;126.75;;;27.67;;
55216;SDS011;41086;46.736;15.666;2023-05-07T00:59:37;53.07;;;20.33;;
55216;SDS011;41086;46.736;15.666;2023-05-07T01:02:55;46.05;;;19.85;;
55216;SDS011;41086;46.736;15.666;2023-05-07T01:06:13;34.28;;;17.25;;
55216;SDS011;41086;46.736;15.666;2023-05-07T01:09:31;25.65;;;16.05;;
55216;SDS011;41086;46.736;15.666;2023-05-07T01:12:50;29.67;;;17.38;;
55216;SDS011;41086;46.736;15.666;2023-05-07T01:16:08;38.00;;;18.15;;
55216;SDS011;41086;46.736;15.666;2023-05-07T01:19:26;30.38;;;17.10;;
55216;SDS011;41086;46.736;15.666;2023-05-07T01:22:47;29.27;;;17.42;;
55216;SDS011;41086;46.736;15.666;2023-05-07T01:26:05;25.55;;;15.05;;
55216;SDS011;41086;46.736;15.666;2023-05-07T01:29:22;19.15;;;12.15;;
55216;SDS011;41086;46.736;15.666;2023-05-07T01:36:00;13.32;;;7.88;;
55216;SDS011;41086;46.736;15.666;2023-05-07T01:39:18;12.45;;;9.07;;
55216;SDS011;41086;46.736;15.666;2023-05-07T01:42:36;15.57;;;9.77;;
55216;SDS011;41086;46.736;15.666;2023-05-07T01:45:55;19.30;;;11.07;;
55216;SDS011;41086;46.736;15.666;2023-05-07T01:49:14;15.40;;;10.77;;
55216;SDS011;41086;46.736;15.666;2023-05-07T01:52:32;21.02;;;11.73;;
55216;SDS011;41086;46.736;15.666;2023-05-07T01:55:50;18.25;;;11.38;;
55216;SDS011;41086;46.736;15.666;2023-05-07T01:59:07;16.95;;;10.30;;
55216;SDS011;41086;46.736;15.666;2023-05-07T02:02:24;14.82;;;9.73;;
55216;SDS011;41086;46.736;15.666;2023-05-07T02:05:56;14.13;;;8.88;;
55216;SDS011;41086;46.736;15.666;2023-05-07T02:09:14;17.58;;;12.80;;
55216;SDS011;41086;46.736;15.666;2023-05-07T02:12:32;15.45;;;10.32;;
55216;SDS011;41086;46.736;15.666;2023-05-07T02:15:51;13.23;;;8.63;;
55216;SDS011;41086;46.736;15.666;2023-05-07T02:19:10;19.13;;;10.20;;
55216;SDS011;41086;46.736;15.666;2023-05-07T02:22:27;24.73;;;12.50;;
55216;SDS011;41086;46.736;15.666;2023-05-07T02:25:45;15.68;;;10.55;;
55216;SDS011;41086;46.736;15.666;2023-05-07T02:29:02;13.02;;;8.77;;
55216;SDS011;41086;46.736;15.666;2023-05-07T02:32:20;11.23;;;7.95;;
55216;SDS011;41086;46.736;15.666;2023-05-07T02:35:39;13.13;;;9.07;;
55216;SDS011;41086;46.736;15.666;2023-05-07T02:39:05;19.00;;;11.50;;
55216;SDS011;41086;46.736;15.666;2023-05-07T02:42:22;12.07;;;9.30;;
55216;SDS011;41086;46.736;15.666;2023-05-07T02:45:43;17.85;;;11.23;;
55216;SDS011;41086;46.736;15.666;2023-05-07T02:49:05;18.35;;;11.30;;
55216;SDS011;41086;46.736;15.666;2023-05-07T02:52:23;16.08;;;10.30;;
55216;SDS011;41086;46.736;15.666;2023-05-07T02:55:40;19.08;;;12.70;;
55216;SDS011;41086;46.736;15.666;2023-05-07T02:58:58;25.35;;;13.18;;
55216;SDS011;41086;46.736;15.666;2023-05-07T03:02:16;18.55;;;11.32;;
55216;SDS011;41086;46.736;15.666;2023-05-07T03:05:34;23.08;;;12.63;;
55216;SDS011;41086;46.736;15.666;2023-05-07T03:08:52;27.15;;;13.18;;
55216;SDS011;41086;46.736;15.666;2023-05-07T03:12:09;62.75;;;16.90;;
55216;SDS011;41086;46.736;15.666;2023-05-07T03:15:28;82.68;;;14.52;;
55216;SDS011;41086;46.736;15.666;2023-05-07T03:18:46;242.93;;;28.15;;
55216;SDS011;41086;46.736;15.666;2023-05-07T03:22:03;72.13;;;15.80;;
55216;SDS011;41086;46.736;15.666;2023-05-07T03:25:21;295.95;;;35.30;;
55216;SDS011;41086;46.736;15.666;2023-05-07T03:28:38;343.00;;;42.42;;
55216;SDS011;41086;46.736;15.666;2023-05-07T03:31:56;47.13;;;17.10;;
55216;SDS011;41086;46.736;15.666;2023-05-07T03:35:13;78.40;;;18.83;;
55216;SDS011;41086;46.736;15.666;2023-05-07T03:38:31;173.18;;;28.55;;
55216;SDS011;41086;46.736;15.666;2023-05-07T03:41:48;106.80;;;21.58;;
55216;SDS011;41086;46.736;15.666;2023-05-07T03:45:06;41.70;;;17.92;;
55216;SDS011;41086;46.736;15.666;2023-05-07T03:51:44;134.75;;;27.10;;
55216;SDS011;41086;46.736;15.666;2023-05-07T03:55:03;39.72;;;17.08;;
55216;SDS011;41086;46.736;15.666;2023-05-07T03:58:21;101.93;;;22.05;;
55216;SDS011;41086;46.736;15.666;2023-05-07T04:01:42;59.85;;;22.20;;
55216;SDS011;41086;46.736;15.666;2023-05-07T04:05:00;51.50;;;17.85;;
55216;SDS011;41086;46.736;15.666;2023-05-07T04:08:18;100.82;;;23.63;;
55216;SDS011;41086;46.736;15.666;2023-05-07T04:11:37;181.82;;;26.70;;
55216;SDS011;41086;46.736;15.666;2023-05-07T04:14:55;132.48;;;26.15;;
55216;SDS011;41086;46.736;15.666;2023-05-07T04:18:15;226.45;;;30.98;;
55216;SDS011;41086;46.736;15.666;2023-05-07T04:21:33;160.43;;;27.38;;
55216;SDS011;41086;46.736;15.666;2023-05-07T04:24:51;154.30;;;26.83;;
55216;SDS011;41086;46.736;15.666;2023-05-07T04:28:22;252.77;;;31.73;;
55216;SDS011;41086;46.736;15.666;2023-05-07T04:31:40;315.75;;;36.65;;
55216;SDS011;41086;46.736;15.666;2023-05-07T04:34:58;202.27;;;26.70;;
55216;SDS011;41086;46.736;15.666;2023-05-07T04:38:15;171.27;;;23.67;;
55216;SDS011;41086;46.736;15.666;2023-05-07T04:41:35;193.93;;;28.23;;
55216;SDS011;41086;46.736;15.666;2023-05-07T04:44:53;248.07;;;26.50;;
55216;SDS011;41086;46.736;15.666;2023-05-07T04:48:11;480.73;;;56.65;;
55216;SDS011;41086;46.736;15.666;2023-05-07T04:51:29;257.08;;;31.52;;
55216;SDS011;41086;46.736;15.666;2023-05-07T04:54:47;180.82;;;20.65;;
55216;SDS011;41086;46.736;15.666;2023-05-07T04:58:05;125.28;;;21.40;;
55216;SDS011;41086;46.736;15.666;2023-05-07T05:01:22;253.20;;;32.00;;
55216;SDS011;41086;46.736;15.666;2023-05-07T05:04:41;97.38;;;16.75;;
55216;SDS011;41086;46.736;15.666;2023-05-07T05:07:59;248.65;;;26.98;;
55216;SDS011;41086;46.736;15.666;2023-05-07T05:11:17;315.25;;;34.38;;
55216;SDS011;41086;46.736;15.666;2023-05-07T05:14:36;200.02;;;27.98;;
55216;SDS011;41086;46.736;15.666;2023-05-07T05:17:57;192.77;;;24.65;;
55216;SDS011;41086;46.736;15.666;2023-05-07T05:24:34;108.70;;;15.68;;
55216;SDS011;41086;46.736;15.666;2023-05-07T05:27:52;165.13;;;20.70;;
55216;SDS011;41086;46.736;15.666;2023-05-07T05:31:12;108.68;;;15.35;;
55216;SDS011;41086;46.736;15.666;2023-05-07T05:34:30;88.20;;;16.75;;
55216;SDS011;41086;46.736;15.666;2023-05-07T05:37:48;67.63;;;15.57;;
55216;SDS011;41086;46.736;15.666;2023-05-07T05:41:07;19.80;;;11.35;;
55216;SDS011;41086;46.736;15.666;2023-05-07T05:44:26;25.70;;;10.48;;
55216;SDS011;41086;46.736;15.666;2023-05-07T05:47:44;44.70;;;12.05;;
55216;SDS011;41086;46.736;15.666;2023-05-07T05:51:03;78.45;;;13.05;;
55216;SDS011;41086;46.736;15.666;2023-05-07T05:54:23;70.97;;;12.85;;
55216;SDS011;41086;46.736;15.666;2023-05-07T05:57:41;72.53;;;11.02;;
55216;SDS011;41086;46.736;15.666;2023-05-07T06:01:02;36.60;;;9.77;;
55216;SDS011;41086;46.736;15.666;2023-05-07T06:04:20;115.28;;;16.42;;
55216;SDS011;41086;46.736;15.666;2023-05-07T06:07:38;25.85;;;11.55;;
55216;SDS011;41086;46.736;15.666;2023-05-07T06:10:57;15.50;;;11.43;;
55216;SDS011;41086;46.736;15.666;2023-05-07T06:14:14;15.70;;;9.65;;
55216;SDS011;41086;46.736;15.666;2023-05-07T06:17:32;10.50;;;9.13;;
55216;SDS011;41086;46.736;15.666;2023-05-07T06:20:49;12.57;;;9.32;;
55216;SDS011;41086;46.736;15.666;2023-05-07T06:24:07;9.15;;;8.18;;
55216;SDS011;41086;46.736;15.666;2023-05-07T06:27:25;12.40;;;8.63;;
55216;SDS011;41086;46.736;15.666;2023-05-07T06:30:43;11.00;;;8.50;;
55216;SDS011;41086;46.736;15.666;2023-05-07T06:34:04;9.82;;;8.82;;
55216;SDS011;41086;46.736;15.666;2023-05-07T06:37:22;11.32;;;7.85;;
55216;SDS011;41086;46.736;15.666;2023-05-07T06:40:40;8.90;;;7.85;;
55216;SDS011;41086;46.736;15.666;2023-05-07T06:44:05;7.30;;;6.38;;
55216;SDS011;41086;46.736;15.666;2023-05-07T06:47:22;10.00;;;6.97;;
55216;SDS011;41086;46.736;15.666;2023-05-07T06:50:50;7.97;;;6.82;;
55216;SDS011;41086;46.736;15.666;2023-05-07T06:54:07;8.70;;;7.30;;
55216;SDS011;41086;46.736;15.666;2023-05-07T06:57:26;7.05;;;6.13;;
55216;SDS011;41086;46.736;15.666;2023-05-07T07:00:43;7.40;;;6.40;;
55216;SDS011;41086;46.736;15.666;2023-05-07T07:04:02;9.02;;;5.65;;
55216;SDS011;41086;46.736;15.666;2023-05-07T07:07:19;7.70;;;6.80;;
55216;SDS011;41086;46.736;15.666;2023-05-07T07:10:37;7.32;;;5.95;;
55216;SDS011;41086;46.736;15.666;2023-05-07T07:13:55;6.60;;;5.63;;
55216;SDS011;41086;46.736;15.666;2023-05-07T07:17:13;6.63;;;5.85;;
55216;SDS011;41086;46.736;15.666;2023-05-07T07:20:31;8.25;;;5.88;;
55216;SDS011;41086;46.736;15.666;2023-05-07T07:23:49;7.03;;;5.13;;
55216;SDS011;41086;46.736;15.666;2023-05-07T07:27:09;6.63;;;4.93;;
55216;SDS011;41086;46.736;15.666;2023-05-07T07:30:27;5.97;;;5.10;;
55216;SDS011;41086;46.736;15.666;2023-05-07T07:33:45;9.02;;;5.38;;
55216;SDS011;41086;46.736;15.666;2023-05-07T07:37:02;8.90;;;6.13;;
55216;SDS011;41086;46.736;15.666;2023-05-07T07:40:19;6.85;;;5.32;;
55216;SDS011;41086;46.736;15.666;2023-05-07T07:43:37;9.45;;;5.75;;
55216;SDS011;41086;46.736;15.666;2023-05-07T07:46:58;9.85;;;8.07;;
55216;SDS011;41086;46.736;15.666;2023-05-07T07:50:17;5.88;;;5.10;;
55216;SDS011;41086;46.736;15.666;2023-05-07T07:53:34;6.43;;;5.18;;
55216;SDS011;41086;46.736;15.666;2023-05-07T07:56:52;6.15;;;4.68;;
55216;SDS011;41086;46.736;15.666;2023-05-07T08:00:10;5.10;;;3.67;;
55216;SDS011;41086;46.736;15.666;2023-05-07T08:03:28;8.40;;;4.28;;
55216;SDS011;41086;46.736;15.666;2023-05-07T08:06:45;6.60;;;4.80;;
55216;SDS011;41086;46.736;15.666;2023-05-07T08:10:03;8.45;;;4.57;;
55216;SDS011;41086;46.736;15.666;2023-05-07T08:13:27;8.60;;;4.60;;
55216;SDS011;41086;46.736;15.666;2023-05-07T08:16:46;5.68;;;4.53;;
55216;SDS011;41086;46.736;15.666;2023-05-07T08:20:04;4.82;;;3.75;;
55216;SDS011;41086;46.736;15.666;2023-05-07T08:23:25;4.50;;;3.97;;
55216;SDS011;41086;46.736;15.666;2023-05-07T08:26:44;4.45;;;3.88;;
55216;SDS011;41086;46.736;15.666;2023-05-07T08:30:02;4.68;;;3.55;;
55216;SDS011;41086;46.736;15.666;2023-05-07T08:33:20;4.82;;;3.30;;
55216;SDS011;41086;46.736;15.666;2023-05-07T08:36:41;9.32;;;4.75;;
55216;SDS011;41086;46.736;15.666;2023-05-07T08:39:59;5.80;;;3.75;;
55216;SDS011;41086;46.736;15.666;2023-05-07T08:43:19;4.20;;;3.78;;
55216;SDS011;41086;46.736;15.666;2023-05-07T08:50:00;3.83;;;3.25;;
55216;SDS011;41086;46.736;15.666;2023-05-07T08:53:18;3.85;;;3.17;;
55216;SDS011;41086;46.736;15.666;2023-05-07T08:56:38;4.20;;;3.70;;
55216;SDS011;41086;46.736;15.666;2023-05-07T08:59:56;6.03;;;3.67;;
55216;SDS011;41086;46.736;15.666;2023-05-07T09:03:14;6.32;;;3.75;;
55216;SDS011;41086;46.736;15.666;2023-05-07T09:06:34;5.63;;;3.55;;
55216;SDS011;41086;46.736;15.666;2023-05-07T09:09:52;5.17;;;4.03;;
55216;SDS011;41086;46.736;15.666;2023-05-07T09:13:11;85.82;;;60.90;;
55216;SDS011;41086;46.736;15.666;2023-05-07T09:16:34;4.10;;;3.38;;
55216;SDS011;41086;46.736;15.666;2023-05-07T09:19:52;3.30;;;2.80;;
55216;SDS011;41086;46.736;15.666;2023-05-07T09:23:10;4.85;;;3.42;;
55216;SDS011;41086;46.736;15.666;2023-05-07T09:26:33;3.95;;;2.85;;
55216;SDS011;41086;46.736;15.666;2023-05-07T09:29:53;4.60;;;3.58;;
55216;SDS011;41086;46.736;15.666;2023-05-07T09:36:33;4.57;;;4.07;;
55216;SDS011;41086;46.736;15.666;2023-05-07T09:39:52;4.20;;;2.88;;
55216;SDS011;41086;46.736;15.666;2023-05-07T09:43:13;4.55;;;3.00;;
55216;SDS011;41086;46.736;15.666;2023-05-07T09:46:38;3.55;;;3.03;;
55216;SDS011;41086;46.736;15.666;2023-05-07T09:49:59;3.58;;;2.67;;
55216;SDS011;41086;46.736;15.666;2023-05-07T09:53:25;4.13;;;3.05;;
55216;SDS011;41086;46.736;15.666;2023-05-07T09:56:46;3.63;;;3.13;;
55216;SDS011;41086;46.736;15.666;2023-05-07T10:00:07;3.42;;;2.42;;
55216;SDS011;41086;46.736;15.666;2023-05-07T10:03:27;3.00;;;2.50;;
55216;SDS011;41086;46.736;15.666;2023-05-07T10:06:47;3.75;;;3.20;;
55216;SDS011;41086;46.736;15.666;2023-05-07T10:10:08;3.28;;;2.63;;
55216;SDS011;41086;46.736;15.666;2023-05-07T10:13:27;5.53;;;2.88;;
55216;SDS011;41086;46.736;15.666;2023-05-07T10:20:06;5.95;;;3.83;;
55216;SDS011;41086;46.736;15.666;2023-05-07T10:23:28;4.80;;;4.03;;
55216;SDS011;41086;46.736;15.666;2023-05-07T10:26:53;5.30;;;3.10;;
55216;SDS011;41086;46.736;15.666;2023-05-07T10:30:29;3.72;;;2.88;;
55216;SDS011;41086;46.736;15.666;2023-05-07T10:33:49;3.70;;;2.40;;
55216;SDS011;41086;46.736;15.666;2023-05-07T10:37:12;2.95;;;2.10;;
55216;SDS011;41086;46.736;15.666;2023-05-07T10:40:34;25.92;;;17.10;;
55216;SDS011;41086;46.736;15.666;2023-05-07T10:43:52;3.10;;;2.33;;
55216;SDS011;41086;46.736;15.666;2023-05-07T10:47:16;2.70;;;2.13;;
55216;SDS011;41086;46.736;15.666;2023-05-07T10:50:51;5.25;;;2.10;;
55216;SDS011;41086;46.736;15.666;2023-05-07T10:55:34;4.10;;;2.50;;
55216;SDS011;41086;46.736;15.666;2023-05-07T10:58:55;3.17;;;2.20;;
55216;SDS011;41086;46.736;15.666;2023-05-07T11:02:19;4.72;;;3.03;;
55216;SDS011;41086;46.736;15.666;2023-05-07T11:13:56;4.60;;;2.55;;
55216;SDS011;41086;46.736;15.666;2023-05-07T11:17:22;4.25;;;2.67;;
55216;SDS011;41086;46.736;15.666;2023-05-07T11:24:26;3.78;;;2.80;;
55216;SDS011;41086;46.736;15.666;2023-05-07T11:27:54;4.07;;;2.85;;
55216;SDS011;41086;46.736;15.666;2023-05-07T11:31:12;3.45;;;2.80;;
55216;SDS011;41086;46.736;15.666;2023-05-07T11:34:36;4.82;;;3.50;;
55216;SDS011;41086;46.736;15.666;2023-05-07T11:37:57;10.23;;;3.40;;
55216;SDS011;41086;46.736;15.666;2023-05-07T11:41:16;3.53;;;3.22;;
55216;SDS011;41086;46.736;15.666;2023-05-07T11:44:41;4.82;;;3.13;;
55216;SDS011;41086;46.736;15.666;2023-05-07T11:48:01;3.55;;;2.88;;
55216;SDS011;41086;46.736;15.666;2023-05-07T11:51:19;4.38;;;2.38;;
55216;SDS011;41086;46.736;15.666;2023-05-07T11:54:39;3.35;;;2.40;;
55216;SDS011;41086;46.736;15.666;2023-05-07T11:57:57;3.00;;;2.60;;
55216;SDS011;41086;46.736;15.666;2023-05-07T12:01:14;6.22;;;4.35;;
55216;SDS011;41086;46.736;15.666;2023-05-07T12:04:32;5.22;;;2.90;;
55216;SDS011;41086;46.736;15.666;2023-05-07T12:07:55;3.00;;;2.58;;
55216;SDS011;41086;46.736;15.666;2023-05-07T12:11:15;46.97;;;40.60;;
55216;SDS011;41086;46.736;15.666;2023-05-07T12:14:37;5.03;;;3.25;;
55216;SDS011;41086;46.736;15.666;2023-05-07T12:17:54;5.28;;;3.95;;
55216;SDS011;41086;46.736;15.666;2023-05-07T12:21:11;5.00;;;2.70;;
55216;SDS011;41086;46.736;15.666;2023-05-07T12:28:03;3.70;;;3.13;;
55216;SDS011;41086;46.736;15.666;2023-05-07T12:31:21;3.13;;;2.75;;
55216;SDS011;41086;46.736;15.666;2023-05-07T12:34:46;5.13;;;3.00;;
55216;SDS011;41086;46.736;15.666;2023-05-07T12:38:13;5.80;;;3.10;;
55216;SDS011;41086;46.736;15.666;2023-05-07T12:41:34;6.32;;;2.97;;
55216;SDS011;41086;46.736;15.666;2023-05-07T12:44:52;3.83;;;2.97;;
55216;SDS011;41086;46.736;15.666;2023-05-07T12:48:10;87.47;;;65.10;;
55216;SDS011;41086;46.736;15.666;2023-05-07T12:51:27;5.20;;;3.30;;
55216;SDS011;41086;46.736;15.666;2023-05-07T12:54:45;10.73;;;3.38;;
55216;SDS011;41086;46.736;15.666;2023-05-07T12:58:17;3.80;;;3.28;;
55216;SDS011;41086;46.736;15.666;2023-05-07T13:01:34;3.47;;;3.17;;
55216;SDS011;41086;46.736;15.666;2023-05-07T13:04:58;4.57;;;3.88;;
55216;SDS011;41086;46.736;15.666;2023-05-07T13:08:26;5.32;;;3.30;;
55216;SDS011;41086;46.736;15.666;2023-05-07T13:11:44;6.15;;;3.00;;
55216;SDS011;41086;46.736;15.666;2023-05-07T13:15:01;3.70;;;3.22;;
55216;SDS011;41086;46.736;15.666;2023-05-07T13:18:18;14.45;;;3.97;;
55216;SDS011;41086;46.736;15.666;2023-05-07T13:21:36;6.47;;;3.45;;
55216;SDS011;41086;46.736;15.666;2023-05-07T13:24:53;3.53;;;3.08;;
55216;SDS011;41086;46.736;15.666;2023-05-07T13:28:11;5.38;;;3.40;;
55216;SDS011;41086;46.736;15.666;2023-05-07T13:31:28;5.50;;;3.55;;
55216;SDS011;41086;46.736;15.666;2023-05-07T13:34:45;3.25;;;2.90;;
55216;SDS011;41086;46.736;15.666;2023-05-07T13:38:03;4.85;;;3.35;;
55216;SDS011;41086;46.736;15.666;2023-05-07T13:41:20;6.50;;;3.70;;
55216;SDS011;41086;46.736;15.666;2023-05-07T13:44:38;5.10;;;3.72;;
55216;SDS011;41086;46.736;15.666;2023-05-07T13:47:56;5.70;;;3.47;;
55216;SDS011;41086;46.736;15.666;2023-05-07T13:51:14;5.72;;;3.70;;
55216;SDS011;41086;46.736;15.666;2023-05-07T13:54:31;13.50;;;3.83;;
55216;SDS011;41086;46.736;15.666;2023-05-07T13:57:56;6.30;;;4.03;;
55216;SDS011;41086;46.736;15.666;2023-05-07T14:01:26;4.45;;;2.88;;
55216;SDS011;41086;46.736;15.666;2023-05-07T14:04:44;4.40;;;3.05;;
55216;SDS011;41086;46.736;15.666;2023-05-07T14:08:03;7.05;;;3.47;;
55216;SDS011;41086;46.736;15.666;2023-05-07T14:11:21;4.20;;;3.33;;
55216;SDS011;41086;46.736;15.666;2023-05-07T14:14:38;4.53;;;3.35;;
55216;SDS011;41086;46.736;15.666;2023-05-07T14:17:55;5.00;;;3.00;;
55216;SDS011;41086;46.736;15.666;2023-05-07T14:21:13;4.82;;;3.40;;
55216;SDS011;41086;46.736;15.666;2023-05-07T14:24:30;5.72;;;3.13;;
55216;SDS011;41086;46.736;15.666;2023-05-07T14:27:50;4.97;;;3.10;;
55216;SDS011;41086;46.736;15.666;2023-05-07T14:31:12;4.95;;;3.33;;
55216;SDS011;41086;46.736;15.666;2023-05-07T14:34:30;4.78;;;3.47;;
55216;SDS011;41086;46.736;15.666;2023-05-07T14:37:48;4.40;;;4.00;;
55216;SDS011;41086;46.736;15.666;2023-05-07T14:41:05;15.20;;;10.13;;
55216;SDS011;41086;46.736;15.666;2023-05-07T14:44:23;9.75;;;8.85;;
55216;SDS011;41086;46.736;15.666;2023-05-07T14:47:40;6.20;;;3.55;;
55216;SDS011;41086;46.736;15.666;2023-05-07T14:50:58;5.65;;;3.42;;
55216;SDS011;41086;46.736;15.666;2023-05-07T14:54:15;5.30;;;3.00;;
55216;SDS011;41086;46.736;15.666;2023-05-07T14:57:33;8.30;;;3.47;;
55216;SDS011;41086;46.736;15.666;2023-05-07T15:00:50;3.22;;;2.00;;
55216;SDS011;41086;46.736;15.666;2023-05-07T15:04:11;2.35;;;1.40;;
55216;SDS011;41086;46.736;15.666;2023-05-07T15:07:29;3.55;;;1.60;;
55216;SDS011;41086;46.736;15.666;2023-05-07T15:10:46;8.75;;;2.97;;
55216;SDS011;41086;46.736;15.666;2023-05-07T15:14:05;13.68;;;3.08;;
55216;SDS011;41086;46.736;15.666;2023-05-07T15:17:22;9.65;;;3.75;;
55216;SDS011;41086;46.736;15.666;2023-05-07T15:20:41;10.55;;;2.88;;
55216;SDS011;41086;46.736;15.666;2023-05-07T15:24:01;7.35;;;3.85;;
55216;SDS011;41086;46.736;15.666;2023-05-07T15:27:18;6.97;;;2.72;;
55216;SDS011;41086;46.736;15.666;2023-05-07T15:30:36;13.02;;;2.70;;
55216;SDS011;41086;46.736;15.666;2023-05-07T15:33:53;10.35;;;2.85;;
55216;SDS011;41086;46.736;15.666;2023-05-07T15:37:12;9.07;;;2.55;;
55216;SDS011;41086;46.736;15.666;2023-05-07T15:40:29;9.63;;;2.90;;
55216;SDS011;41086;46.736;15.666;2023-05-07T15:43:48;12.80;;;3.60;;
55216;SDS011;41086;46.736;15.666;2023-05-07T15:50:24;9.48;;;2.90;;
55216;SDS011;41086;46.736;15.666;2023-05-07T15:53:43;5.70;;;2.95;;
55216;SDS011;41086;46.736;15.666;2023-05-07T15:57:01;9.05;;;4.00;;
55216;SDS011;41086;46.736;15.666;2023-05-07T16:00:20;9.53;;;3.73;;
55216;SDS011;41086;46.736;15.666;2023-05-07T16:03:37;7.50;;;3.25;;
55216;SDS011;41086;46.736;15.666;2023-05-07T16:06:55;11.30;;;7.97;;
55216;SDS011;41086;46.736;15.666;2023-05-07T16:10:12;10.05;;;3.83;;
55216;SDS011;41086;46.736;15.666;2023-05-07T16:13:30;10.25;;;4.70;;
55216;SDS011;41086;46.736;15.666;2023-05-07T16:16:47;9.88;;;5.70;;
55216;SDS011;41086;46.736;15.666;2023-05-07T16:20:05;12.45;;;5.13;;
55216;SDS011;41086;46.736;15.666;2023-05-07T16:23:23;16.10;;;6.38;;
55216;SDS011;41086;46.736;15.666;2023-05-07T16:26:40;9.57;;;3.95;;
55216;SDS011;41086;46.736;15.666;2023-05-07T16:29:58;9.45;;;4.78;;
55216;SDS011;41086;46.736;15.666;2023-05-07T16:33:15;9.98;;;4.72;;
55216;SDS011;41086;46.736;15.666;2023-05-07T16:36:33;8.45;;;4.68;;
55216;SDS011;41086;46.736;15.666;2023-05-07T16:39:50;10.18;;;4.38;;
55216;SDS011;41086;46.736;15.666;2023-05-07T16:43:08;6.85;;;4.72;;
55216;SDS011;41086;46.736;15.666;2023-05-07T16:46:25;21.27;;;5.07;;
55216;SDS011;41086;46.736;15.666;2023-05-07T16:49:43;8.13;;;4.95;;
55216;SDS011;41086;46.736;15.666;2023-05-07T16:53:00;10.20;;;6.38;;
55216;SDS011;41086;46.736;15.666;2023-05-07T16:56:18;9.50;;;5.50;;
55216;SDS011;41086;46.736;15.666;2023-05-07T16:59:35;7.75;;;4.80;;
55216;SDS011;41086;46.736;15.666;2023-05-07T17:03:04;9.90;;;4.80;;
55216;SDS011;41086;46.736;15.666;2023-05-07T17:06:21;8.30;;;4.95;;
55216;SDS011;41086;46.736;15.666;2023-05-07T17:09:40;18.25;;;5.47;;
55216;SDS011;41086;46.736;15.666;2023-05-07T17:12:57;15.45;;;5.55;;
55216;SDS011;41086;46.736;15.666;2023-05-07T17:16:15;19.77;;;10.38;;
55216;SDS011;41086;46.736;15.666;2023-05-07T17:19:33;9.05;;;5.03;;
55216;SDS011;41086;46.736;15.666;2023-05-07T17:22:54;10.95;;;4.82;;
55216;SDS011;41086;46.736;15.666;2023-05-07T17:26:12;14.05;;;4.80;;
55216;SDS011;41086;46.736;15.666;2023-05-07T17:29:29;10.23;;;5.70;;
55216;SDS011;41086;46.736;15.666;2023-05-07T17:32:46;11.93;;;5.35;;
55216;SDS011;41086;46.736;15.666;2023-05-07T17:36:04;10.27;;;5.70;;
55216;SDS011;41086;46.736;15.666;2023-05-07T17:39:23;17.05;;;6.93;;
55216;SDS011;41086;46.736;15.666;2023-05-07T17:42:41;10.35;;;6.80;;
55216;SDS011;41086;46.736;15.666;2023-05-07T17:45:58;10.48;;;5.57;;
55216;SDS011;41086;46.736;15.666;2023-05-07T17:49:15;10.68;;;4.93;;
55216;SDS011;41086;46.736;15.666;2023-05-07T17:52:37;5.47;;;4.28;;
55216;SDS011;41086;46.736;15.666;2023-05-07T17:55:54;8.82;;;4.90;;
55216;SDS011;41086;46.736;15.666;2023-05-07T17:59:12;8.70;;;4.18;;
55216;SDS011;41086;46.736;15.666;2023-05-07T18:02:33;8.75;;;3.90;;
55216;SDS011;41086;46.736;15.666;2023-05-07T18:05:51;9.07;;;5.72;;
55216;SDS011;41086;46.736;15.666;2023-05-07T18:09:08;7.15;;;4.25;;
55216;SDS011;41086;46.736;15.666;2023-05-07T18:12:26;13.10;;;4.85;;
55216;SDS011;41086;46.736;15.666;2023-05-07T18:15:46;9.63;;;5.55;;
55216;SDS011;41086;46.736;15.666;2023-05-07T18:19:03;9.95;;;6.90;;
55216;SDS011;41086;46.736;15.666;2023-05-07T18:22:21;6.97;;;5.70;;
55216;SDS011;41086;46.736;15.666;2023-05-07T18:25:39;12.18;;;6.18;;
55216;SDS011;41086;46.736;15.666;2023-05-07T18:28:56;8.00;;;5.90;;
55216;SDS011;41086;46.736;15.666;2023-05-07T18:32:13;15.15;;;8.02;;
55216;SDS011;41086;46.736;15.666;2023-05-07T18:35:34;17.13;;;10.60;;
55216;SDS011;41086;46.736;15.666;2023-05-07T18:38:52;14.25;;;9.30;;
55216;SDS011;41086;46.736;15.666;2023-05-07T18:42:09;15.60;;;9.90;;
55216;SDS011;41086;46.736;15.666;2023-05-07T18:45:32;58.45;;;44.10;;
55216;SDS011;41086;46.736;15.666;2023-05-07T18:48:49;19.13;;;10.63;;
55216;SDS011;41086;46.736;15.666;2023-05-07T18:52:07;17.88;;;9.73;;
55216;SDS011;41086;46.736;15.666;2023-05-07T18:55:24;17.30;;;9.98;;
55216;SDS011;41086;46.736;15.666;2023-05-07T18:58:41;14.85;;;9.77;;
55216;SDS011;41086;46.736;15.666;2023-05-07T19:01:59;9.38;;;7.03;;
55216;SDS011;41086;46.736;15.666;2023-05-07T19:05:17;11.23;;;7.97;;
55216;SDS011;41086;46.736;15.666;2023-05-07T19:08:34;14.75;;;8.38;;
55216;SDS011;41086;46.736;15.666;2023-05-07T19:11:51;16.67;;;8.35;;
55216;SDS011;41086;46.736;15.666;2023-05-07T19:15:09;15.05;;;8.60;;
55216;SDS011;41086;46.736;15.666;2023-05-07T19:18:26;12.18;;;7.13;;
55216;SDS011;41086;46.736;15.666;2023-05-07T19:21:43;12.10;;;7.28;;
55216;SDS011;41086;46.736;15.666;2023-05-07T19:25:01;11.20;;;6.97;;
55216;SDS011;41086;46.736;15.666;2023-05-07T19:28:18;8.45;;;6.15;;
55216;SDS011;41086;46.736;15.666;2023-05-07T19:31:43;9.80;;;6.35;;
55216;SDS011;41086;46.736;15.666;2023-05-07T19:35:01;8.73;;;6.57;;
55216;SDS011;41086;46.736;15.666;2023-05-07T19:38:24;10.55;;;5.90;;
55216;SDS011;41086;46.736;15.666;2023-05-07T19:41:43;12.63;;;7.82;;
55216;SDS011;41086;46.736;15.666;2023-05-07T19:45:01;12.48;;;5.10;;
55216;SDS011;41086;46.736;15.666;2023-05-07T19:48:18;7.10;;;4.07;;
55216;SDS011;41086;46.736;15.666;2023-05-07T19:51:38;8.35;;;5.20;;
55216;SDS011;41086;46.736;15.666;2023-05-07T19:54:55;8.35;;;4.78;;
55216;SDS011;41086;46.736;15.666;2023-05-07T19:58:13;14.88;;;9.70;;
55216;SDS011;41086;46.736;15.666;2023-05-07T20:01:30;20.90;;;13.07;;
55216;SDS011;41086;46.736;15.666;2023-05-07T20:04:48;14.70;;;12.20;;